sensor_id;sensor_type;location;lat;lon;timestamp;pressure;altitude;pressure_sealevel;temperature;humidity
20909;BME280;10614;53.198;6.570;2022-09-17T00:01:47;101039.03;;;11.54;89.66
20909;BME280;10614;53.198;6.570;2022-09-17T00:03:51;101029.31;;;11.56;90.77
20909;BME280;10614;53.198;6.570;2022-09-17T00:05:58;101048.50;;;11.59;90.64
20909;BME280;10614;53.198;6.570;2022-09-17T00:08:00;101032.59;;;11.61;89.61
20909;BME280;10614;53.198;6.570;2022-09-17T00:10:02;101046.66;;;11.61;89.27
20909;BME280;10614;53.198;6.570;2022-09-17T00:12:04;101036.91;;;11.64;89.06
20909;BME280;10614;53.198;6.570;2022-09-17T00:14:08;101041.25;;;11.65;88.23
20909;BME280;10614;53.198;6.570;2022-09-17T00:16:11;101045.69;;;11.64;86.75
20909;BME280;10614;53.198;6.570;2022-09-17T00:18:14;101054.50;;;11.63;86.36
20909;BME280;10614;53.198;6.570;2022-09-17T00:20:17;101072.16;;;11.61;85.61
20909;BME280;10614;53.198;6.570;2022-09-17T00:22:18;101088.91;;;11.60;84.37
20909;BME280;10614;53.198;6.570;2022-09-17T00:24:20;101091.59;;;11.58;87.41
20909;BME280;10614;53.198;6.570;2022-09-17T00:26:22;101098.81;;;11.53;89.44
20909;BME280;10614;53.198;6.570;2022-09-17T00:28:24;101084.19;;;11.46;90.51
20909;BME280;10614;53.198;6.570;2022-09-17T00:30:25;101077.31;;;11.42;91.92
20909;BME280;10614;53.198;6.570;2022-09-17T00:32:27;101060.81;;;11.37;93.49
20909;BME280;10614;53.198;6.570;2022-09-17T00:34:29;101046.91;;;11.33;93.45
20909;BME280;10614;53.198;6.570;2022-09-17T00:36:33;101042.72;;;11.28;94.57
20909;BME280;10614;53.198;6.570;2022-09-17T00:38:35;101048.94;;;11.27;95.16
20909;BME280;10614;53.198;6.570;2022-09-17T00:40:37;101039.44;;;11.23;95.61
20909;BME280;10614;53.198;6.570;2022-09-17T00:42:38;101047.38;;;11.21;96.47
20909;BME280;10614;53.198;6.570;2022-09-17T00:44:46;101046.59;;;11.19;97.51
20909;BME280;10614;53.198;6.570;2022-09-17T00:46:49;101043.22;;;11.15;98.76
20909;BME280;10614;53.198;6.570;2022-09-17T00:48:53;101044.25;;;11.11;98.65
20909;BME280;10614;53.198;6.570;2022-09-17T00:50:56;101040.91;;;11.08;99.11
20909;BME280;10614;53.198;6.570;2022-09-17T00:53:05;101044.50;;;11.05;98.85
20909;BME280;10614;53.198;6.570;2022-09-17T00:55:13;101058.59;;;11.04;100.00
20909;BME280;10614;53.198;6.570;2022-09-17T00:57:17;101050.72;;;11.03;100.00
20909;BME280;10614;53.198;6.570;2022-09-17T00:59:19;101055.31;;;10.97;100.00
20909;BME280;10614;53.198;6.570;2022-09-17T01:01:21;101052.88;;;10.93;100.00
20909;BME280;10614;53.198;6.570;2022-09-17T01:03:23;101056.44;;;10.92;100.00
20909;BME280;10614;53.198;6.570;2022-09-17T01:05:30;101057.41;;;10.89;100.00
20909;BME280;10614;53.198;6.570;2022-09-17T01:07:47;101057.50;;;10.86;100.00
20909;BME280;10614;53.198;6.570;2022-09-17T01:09:58;101058.38;;;10.87;100.00
20909;BME280;10614;53.198;6.570;2022-09-17T01:12:15;101061.88;;;10.87;100.00
20909;BME280;10614;53.198;6.570;2022-09-17T01:14:31;101055.66;;;10.88;100.00
20909;BME280;10614;53.198;6.570;2022-09-17T01:16:46;101065.22;;;10.91;100.00
20909;BME280;10614;53.198;6.570;2022-09-17T01:19:03;101055.66;;;10.88;100.00
20909;BME280;10614;53.198;6.570;2022-09-17T01:24:02;101058.44;;;10.85;100.00
20909;BME280;10614;53.198;6.570;2022-09-17T01:26:22;101054.94;;;10.85;100.00
20909;BME280;10614;53.198;6.570;2022-09-17T01:28:40;101062.03;;;10.83;100.00
20909;BME280;10614;53.198;6.570;2022-09-17T01:31:15;101048.06;;;10.81;100.00
20909;BME280;10614;53.198;6.570;2022-09-17T01:33:25;101059.44;;;10.81;100.00
20909;BME280;10614;53.198;6.570;2022-09-17T01:35:33;101063.81;;;10.82;100.00
20909;BME280;10614;53.198;6.570;2022-09-17T01:37:41;101060.34;;;10.82;100.00
20909;BME280;10614;53.198;6.570;2022-09-17T01:39:49;101059.63;;;10.76;100.00
20909;BME280;10614;53.198;6.570;2022-09-17T01:41:56;101064.97;;;10.75;100.00
20909;BME280;10614;53.198;6.570;2022-09-17T01:44:05;101056.19;;;10.74;100.00
20909;BME280;10614;53.198;6.570;2022-09-17T01:46:11;101067.53;;;10.76;100.00
20909;BME280;10614;53.198;6.570;2022-09-17T01:48:17;101064.03;;;10.76;100.00
20909;BME280;10614;53.198;6.570;2022-09-17T01:50:23;101066.66;;;10.76;100.00
20909;BME280;10614;53.198;6.570;2022-09-17T01:52:27;101059.75;;;10.73;100.00
20909;BME280;10614;53.198;6.570;2022-09-17T01:54:33;101059.69;;;10.75;100.00
20909;BME280;10614;53.198;6.570;2022-09-17T01:56:39;101066.66;;;10.76;100.00
20909;BME280;10614;53.198;6.570;2022-09-17T01:58:44;101062.22;;;10.78;100.00
20909;BME280;10614;53.198;6.570;2022-09-17T02:00:52;101063.91;;;10.79;100.00
20909;BME280;10614;53.198;6.570;2022-09-17T02:02:59;101061.28;;;10.79;100.00
20909;BME280;10614;53.198;6.570;2022-09-17T02:05:05;101062.22;;;10.78;100.00
20909;BME280;10614;53.198;6.570;2022-09-17T02:07:13;101067.44;;;10.80;100.00
20909;BME280;10614;53.198;6.570;2022-09-17T02:09:18;101062.25;;;10.76;100.00
20909;BME280;10614;53.198;6.570;2022-09-17T02:11:22;101056.13;;;10.76;100.00
20909;BME280;10614;53.198;6.570;2022-09-17T02:13:28;101061.41;;;10.76;100.00
20909;BME280;10614;53.198;6.570;2022-09-17T02:15:35;101064.97;;;10.75;100.00
20909;BME280;10614;53.198;6.570;2022-09-17T02:17:43;101061.44;;;10.74;100.00
20909;BME280;10614;53.198;6.570;2022-09-17T02:19:46;101059.69;;;10.75;100.00
20909;BME280;10614;53.198;6.570;2022-09-17T02:21:54;101071.94;;;10.76;100.00
20909;BME280;10614;53.198;6.570;2022-09-17T02:24:06;101071.97;;;10.74;100.00
20909;BME280;10614;53.198;6.570;2022-09-17T02:26:14;101078.22;;;10.72;100.00
20909;BME280;10614;53.198;6.570;2022-09-17T02:28:22;101073.88;;;10.71;100.00
20909;BME280;10614;53.198;6.570;2022-09-17T02:30:27;101078.31;;;10.70;100.00
20909;BME280;10614;53.198;6.570;2022-09-17T02:32:29;101082.81;;;10.67;99.46
20909;BME280;10614;53.198;6.570;2022-09-17T02:34:31;101074.09;;;10.65;99.14
20909;BME280;10614;53.198;6.570;2022-09-17T02:36:33;101070.56;;;10.66;98.55
20909;BME280;10614;53.198;6.570;2022-09-17T02:38:40;101068.84;;;10.65;98.92
20909;BME280;10614;53.198;6.570;2022-09-17T02:40:47;101067.19;;;10.62;98.42
20909;BME280;10614;53.198;6.570;2022-09-17T02:42:59;101067.25;;;10.61;99.45
20909;BME280;10614;53.198;6.570;2022-09-17T02:45:08;101063.81;;;10.59;98.06
20909;BME280;10614;53.198;6.570;2022-09-17T02:47:36;101067.47;;;10.54;99.01
20909;BME280;10614;53.198;6.570;2022-09-17T02:49:57;101065.69;;;10.55;98.85
20909;BME280;10614;53.198;6.570;2022-09-17T02:52:11;101077.03;;;10.57;99.66
20909;BME280;10614;53.198;6.570;2022-09-17T02:54:24;101076.22;;;10.55;99.48
20909;BME280;10614;53.198;6.570;2022-09-17T02:56:36;101078.00;;;10.54;100.00
20909;BME280;10614;53.198;6.570;2022-09-17T02:58:46;101074.50;;;10.54;100.00
20909;BME280;10614;53.198;6.570;2022-09-17T03:00:54;101076.16;;;10.56;100.00
20909;BME280;10614;53.198;6.570;2022-09-17T03:03:00;101072.59;;;10.57;100.00
20909;BME280;10614;53.198;6.570;2022-09-17T03:05:05;101070.81;;;10.58;100.00
20909;BME280;10614;53.198;6.570;2022-09-17T03:07:08;101067.34;;;10.57;100.00
20909;BME280;10614;53.198;6.570;2022-09-17T03:09:12;101065.53;;;10.60;100.00
20909;BME280;10614;53.198;6.570;2022-09-17T03:11:15;101066.44;;;10.59;100.00
20909;BME280;10614;53.198;6.570;2022-09-17T03:13:17;101065.53;;;10.60;100.00
20909;BME280;10614;53.198;6.570;2022-09-17T03:15:19;101071.72;;;10.59;100.00
20909;BME280;10614;53.198;6.570;2022-09-17T03:17:20;101056.13;;;10.52;100.00
20909;BME280;10614;53.198;6.570;2022-09-17T03:19:22;101062.16;;;10.56;100.00
20909;BME280;10614;53.198;6.570;2022-09-17T03:21:24;101058.75;;;10.52;100.00
20909;BME280;10614;53.198;6.570;2022-09-17T03:23:26;101063.09;;;10.53;100.00
20909;BME280;10614;53.198;6.570;2022-09-17T03:25:28;101064.88;;;10.53;100.00
20909;BME280;10614;53.198;6.570;2022-09-17T03:27:31;101061.56;;;10.48;100.00
20909;BME280;10614;53.198;6.570;2022-09-17T03:29:32;101072.91;;;10.50;100.00
20909;BME280;10614;53.198;6.570;2022-09-17T03:31:34;101075.66;;;10.47;100.00
20909;BME280;10614;53.198;6.570;2022-09-17T03:33:36;101084.44;;;10.46;100.00
20909;BME280;10614;53.198;6.570;2022-09-17T03:35:37;101083.47;;;10.48;100.00
20909;BME280;10614;53.198;6.570;2022-09-17T03:37:42;101070.31;;;10.48;100.00
20909;BME280;10614;53.198;6.570;2022-09-17T03:39:44;101072.03;;;10.49;99.78
20909;BME280;10614;53.198;6.570;2022-09-17T03:41:45;101072.91;;;10.50;99.44
20909;BME280;10614;53.198;6.570;2022-09-17T03:43:48;101084.28;;;10.50;98.31
20909;BME280;10614;53.198;6.570;2022-09-17T03:45:50;101091.19;;;10.53;96.26
20909;BME280;10614;53.198;6.570;2022-09-17T03:47:52;101086.69;;;10.56;95.83
20909;BME280;10614;53.198;6.570;2022-09-17T03:49:53;101083.13;;;10.57;97.34
20909;BME280;10614;53.198;6.570;2022-09-17T03:51:55;101080.41;;;10.61;97.14
20909;BME280;10614;53.198;6.570;2022-09-17T03:53:57;101073.41;;;10.60;95.78
20909;BME280;10614;53.198;6.570;2022-09-17T03:55:59;101075.94;;;10.63;96.66
20909;BME280;10614;53.198;6.570;2022-09-17T03:58:01;101079.38;;;10.65;96.76
20909;BME280;10614;53.198;6.570;2022-09-17T04:00:05;101075.94;;;10.63;97.53
20909;BME280;10614;53.198;6.570;2022-09-17T04:02:07;101075.94;;;10.63;96.81
20909;BME280;10614;53.198;6.570;2022-09-17T04:04:09;101075.94;;;10.63;96.97
20909;BME280;10614;53.198;6.570;2022-09-17T04:06:10;101082.13;;;10.62;96.86
20909;BME280;10614;53.198;6.570;2022-09-17T04:08:12;101075.16;;;10.61;97.75
20909;BME280;10614;53.198;6.570;2022-09-17T04:10:14;101077.81;;;10.59;96.75
20909;BME280;10614;53.198;6.570;2022-09-17T04:12:16;101070.06;;;10.56;97.45
20909;BME280;10614;53.198;6.570;2022-09-17T04:14:17;101075.41;;;10.53;98.19
20909;BME280;10614;53.198;6.570;2022-09-17T04:16:20;101080.75;;;10.51;96.90
20909;BME280;10614;53.198;6.570;2022-09-17T04:18:22;101072.94;;;10.48;97.43
20909;BME280;10614;53.198;6.570;2022-09-17T04:20:24;101080.03;;;10.46;97.91
20909;BME280;10614;53.198;6.570;2022-09-17T04:22:26;101077.47;;;10.45;96.84
20909;BME280;10614;53.198;6.570;2022-09-17T04:24:28;101077.63;;;10.40;96.31
20909;BME280;10614;53.198;6.570;2022-09-17T04:26:30;101080.25;;;10.40;97.32
20909;BME280;10614;53.198;6.570;2022-09-17T04:28:31;101089.94;;;10.40;95.66
20909;BME280;10614;53.198;6.570;2022-09-17T04:30:33;101086.50;;;10.38;95.92
20909;BME280;10614;53.198;6.570;2022-09-17T04:32:36;101081.31;;;10.34;96.03
20909;BME280;10614;53.198;6.570;2022-09-17T04:34:38;101087.47;;;10.35;95.65
20909;BME280;10614;53.198;6.570;2022-09-17T04:36:39;101081.31;;;10.34;95.42
20909;BME280;10614;53.198;6.570;2022-09-17T04:38:41;101088.44;;;10.32;94.86
20909;BME280;10614;53.198;6.570;2022-09-17T04:40:43;101092.81;;;10.32;95.77
20909;BME280;10614;53.198;6.570;2022-09-17T04:42:45;101086.75;;;10.30;96.41
20909;BME280;10614;53.198;6.570;2022-09-17T04:44:47;101088.59;;;10.26;95.99
20909;BME280;10614;53.198;6.570;2022-09-17T04:46:49;101086.88;;;10.25;96.21
20909;BME280;10614;53.198;6.570;2022-09-17T04:48:52;101094.91;;;10.21;97.39
20909;BME280;10614;53.198;6.570;2022-09-17T04:50:53;101090.63;;;10.18;96.66
20909;BME280;10614;53.198;6.570;2022-09-17T04:52:55;101087.22;;;10.16;96.28
20909;BME280;10614;53.198;6.570;2022-09-17T04:54:56;101087.31;;;10.13;97.63
20909;BME280;10614;53.198;6.570;2022-09-17T04:56:58;101088.31;;;10.09;97.19
20909;BME280;10614;53.198;6.570;2022-09-17T04:59:00;101089.28;;;10.06;97.88
20909;BME280;10614;53.198;6.570;2022-09-17T05:01:01;101091.91;;;10.06;97.32
20909;BME280;10614;53.198;6.570;2022-09-17T05:03:03;101088.47;;;10.04;98.76
20909;BME280;10614;53.198;6.570;2022-09-17T05:05:07;101093.78;;;10.03;98.53
20909;BME280;10614;53.198;6.570;2022-09-17T05:07:09;101105.22;;;10.02;97.44
20909;BME280;10614;53.198;6.570;2022-09-17T05:09:10;101095.66;;;9.99;99.01
20909;BME280;10614;53.198;6.570;2022-09-17T05:11:12;101096.69;;;9.95;99.00
20909;BME280;10614;53.198;6.570;2022-09-17T05:13:14;101099.47;;;9.90;97.17
20909;BME280;10614;53.198;6.570;2022-09-17T05:15:16;101096.88;;;9.89;97.48
20909;BME280;10614;53.198;6.570;2022-09-17T05:17:17;101092.44;;;9.91;97.85
20909;BME280;10614;53.198;6.570;2022-09-17T05:19:19;101094.09;;;9.93;97.06
20909;BME280;10614;53.198;6.570;2022-09-17T05:21:22;101100.09;;;9.97;95.57
20909;BME280;10614;53.198;6.570;2022-09-17T05:23:24;101106.13;;;10.01;95.73
20909;BME280;10614;53.198;6.570;2022-09-17T05:25:25;101105.22;;;10.02;94.99
20909;BME280;10614;53.198;6.570;2022-09-17T05:27:27;101111.13;;;10.08;94.91
20909;BME280;10614;53.198;6.570;2022-09-17T05:29:28;101117.16;;;10.12;92.83
20909;BME280;10614;53.198;6.570;2022-09-17T05:31:30;101121.41;;;10.16;92.33
20909;BME280;10614;53.198;6.570;2022-09-17T05:33:32;101126.56;;;10.19;91.77
20909;BME280;10614;53.198;6.570;2022-09-17T05:35:34;101122.03;;;10.23;92.50
20909;BME280;10614;53.198;6.570;2022-09-17T05:37:37;101118.38;;;10.28;90.55
20909;BME280;10614;53.198;6.570;2022-09-17T05:39:39;101123.53;;;10.31;90.90
20909;BME280;10614;53.198;6.570;2022-09-17T05:41:40;101121.72;;;10.33;90.11
20909;BME280;10614;53.198;6.570;2022-09-17T05:43:42;101120.63;;;10.39;90.09
20909;BME280;10614;53.198;6.570;2022-09-17T05:45:44;101124.06;;;10.41;89.57
20909;BME280;10614;53.198;6.570;2022-09-17T05:47:45;101130.09;;;10.45;91.45
20909;BME280;10614;53.198;6.570;2022-09-17T05:49:47;101113.34;;;10.47;91.07
20909;BME280;10614;53.198;6.570;2022-09-17T05:51:49;101105.41;;;10.49;92.19
20909;BME280;10614;53.198;6.570;2022-09-17T05:53:54;101111.53;;;10.49;92.65
20909;BME280;10614;53.198;6.570;2022-09-17T05:55:55;101123.84;;;10.49;92.93
20909;BME280;10614;53.198;6.570;2022-09-17T05:57:57;101146.63;;;10.48;95.84
20909;BME280;10614;53.198;6.570;2022-09-17T05:59:58;101138.81;;;10.47;96.26
20909;BME280;10614;53.198;6.570;2022-09-17T06:02:00;101160.72;;;10.47;96.44
20909;BME280;10614;53.198;6.570;2022-09-17T06:04:02;101145.03;;;10.44;97.70
20909;BME280;10614;53.198;6.570;2022-09-17T06:06:04;101140.69;;;10.43;97.93
20909;BME280;10614;53.198;6.570;2022-09-17T06:08:06;101164.41;;;10.42;99.17
20909;BME280;10614;53.198;6.570;2022-09-17T06:10:09;101181.16;;;10.39;99.52
20909;BME280;10614;53.198;6.570;2022-09-17T06:12:11;101163.03;;;10.30;100.00
20909;BME280;10614;53.198;6.570;2022-09-17T06:14:13;101145.00;;;10.18;100.00
20909;BME280;10614;53.198;6.570;2022-09-17T06:16:14;101135.91;;;10.01;100.00
20909;BME280;10614;53.198;6.570;2022-09-17T06:18:16;101146.72;;;9.92;100.00
20909;BME280;10614;53.198;6.570;2022-09-17T06:20:18;101150.47;;;9.85;100.00
20909;BME280;10614;53.198;6.570;2022-09-17T06:22:20;101155.06;;;9.78;100.00
20909;BME280;10614;53.198;6.570;2022-09-17T06:24:22;101146.50;;;9.71;100.00
20909;BME280;10614;53.198;6.570;2022-09-17T06:26:25;101138.69;;;9.70;100.00
20909;BME280;10614;53.198;6.570;2022-09-17T06:28:27;101144.03;;;9.67;100.00
20909;BME280;10614;53.198;6.570;2022-09-17T06:30:29;101144.97;;;9.64;100.00
20909;BME280;10614;53.198;6.570;2022-09-17T06:32:31;101136.16;;;9.67;100.00
20909;BME280;10614;53.198;6.570;2022-09-17T06:34:33;101138.69;;;9.70;100.00
20909;BME280;10614;53.198;6.570;2022-09-17T06:36:34;101146.56;;;9.70;100.00
20909;BME280;10614;53.198;6.570;2022-09-17T06:38:36;101147.31;;;9.73;100.00
20909;BME280;10614;53.198;6.570;2022-09-17T06:40:38;101147.16;;;9.78;100.00
20909;BME280;10614;53.198;6.570;2022-09-17T06:42:42;101166.50;;;9.77;100.00
20909;BME280;10614;53.198;6.570;2022-09-17T06:44:43;101154.09;;;9.81;100.00
20909;BME280;10614;53.198;6.570;2022-09-17T06:46:48;101157.53;;;9.83;100.00
20909;BME280;10614;53.198;6.570;2022-09-17T06:48:50;101141.63;;;9.87;100.00
20909;BME280;10614;53.198;6.570;2022-09-17T06:50:52;101152.09;;;9.89;100.00
20909;BME280;10614;53.198;6.570;2022-09-17T06:52:54;101149.44;;;9.90;100.00
20909;BME280;10614;53.198;6.570;2022-09-17T06:54:55;101146.00;;;9.88;100.00
20909;BME280;10614;53.198;6.570;2022-09-17T06:56:57;101152.00;;;9.92;100.00
20909;BME280;10614;53.198;6.570;2022-09-17T06:59:00;101159.00;;;9.93;100.00
20909;BME280;10614;53.198;6.570;2022-09-17T07:01:03;101164.28;;;9.91;100.00
20909;BME280;10614;53.198;6.570;2022-09-17T07:03:05;101158.06;;;9.94;100.00
20909;BME280;10614;53.198;6.570;2022-09-17T07:05:07;101156.28;;;9.94;100.00
20909;BME280;10614;53.198;6.570;2022-09-17T07:07:09;101149.22;;;9.97;100.00
20909;BME280;10614;53.198;6.570;2022-09-17T07:09:11;101142.19;;;9.97;100.00
20909;BME280;10614;53.198;6.570;2022-09-17T07:11:12;101149.19;;;9.98;100.00
20909;BME280;10614;53.198;6.570;2022-09-17T07:13:15;101145.47;;;10.04;100.00
20909;BME280;10614;53.198;6.570;2022-09-17T07:15:18;101152.47;;;10.05;100.00
20909;BME280;10614;53.198;6.570;2022-09-17T07:17:19;101151.50;;;10.07;100.00
20909;BME280;10614;53.198;6.570;2022-09-17T07:19:22;101161.09;;;10.08;100.00
20909;BME280;10614;53.198;6.570;2022-09-17T07:21:24;101158.31;;;10.13;100.00
20909;BME280;10614;53.198;6.570;2022-09-17T07:23:27;101157.34;;;10.15;100.00
20909;BME280;10614;53.198;6.570;2022-09-17T07:25:29;101169.53;;;10.18;100.00
20909;BME280;10614;53.198;6.570;2022-09-17T07:27:31;101156.34;;;10.20;100.00
20909;BME280;10614;53.198;6.570;2022-09-17T07:29:33;101163.25;;;10.24;100.00
20909;BME280;10614;53.198;6.570;2022-09-17T07:31:36;101157.91;;;10.25;100.00
20909;BME280;10614;53.198;6.570;2022-09-17T07:33:38;101163.13;;;10.28;100.00
20909;BME280;10614;53.198;6.570;2022-09-17T07:35:39;101153.34;;;10.32;100.00
20909;BME280;10614;53.198;6.570;2022-09-17T07:37:41;101149.56;;;10.39;100.00
20909;BME280;10614;53.198;6.570;2022-09-17T07:39:43;101164.19;;;10.48;100.00
20909;BME280;10614;53.198;6.570;2022-09-17T07:41:45;101156.09;;;10.54;100.00
20909;BME280;10614;53.198;6.570;2022-09-17T07:43:46;101160.28;;;10.60;100.00
20909;BME280;10614;53.198;6.570;2022-09-17T07:45:48;101154.84;;;10.64;100.00
20909;BME280;10614;53.198;6.570;2022-09-17T07:47:51;101152.06;;;10.69;100.00
20909;BME280;10614;53.198;6.570;2022-09-17T07:49:53;101152.53;;;10.80;100.00
20909;BME280;10614;53.198;6.570;2022-09-17T07:51:55;101154.03;;;10.87;100.00
20909;BME280;10614;53.198;6.570;2022-09-17T07:53:59;101160.00;;;10.92;100.00
20909;BME280;10614;53.198;6.570;2022-09-17T07:56:01;101161.56;;;10.98;100.00
20909;BME280;10614;53.198;6.570;2022-09-17T07:58:03;101164.81;;;11.05;100.00
20909;BME280;10614;53.198;6.570;2022-09-17T08:00:06;101171.56;;;11.12;100.00
20909;BME280;10614;53.198;6.570;2022-09-17T08:02:10;101162.88;;;11.10;100.00
20909;BME280;10614;53.198;6.570;2022-09-17T08:04:14;101171.41;;;11.16;100.00
20909;BME280;10614;53.198;6.570;2022-09-17T08:06:18;101174.91;;;11.17;100.00
20909;BME280;10614;53.198;6.570;2022-09-17T08:08:20;101163.63;;;11.13;99.95
20909;BME280;10614;53.198;6.570;2022-09-17T08:10:22;101178.56;;;11.13;100.00
20909;BME280;10614;53.198;6.570;2022-09-17T08:12:24;101175.09;;;11.12;100.00
20909;BME280;10614;53.198;6.570;2022-09-17T08:14:25;101175.19;;;11.09;99.78
20909;BME280;10614;53.198;6.570;2022-09-17T08:16:29;101170.84;;;11.08;100.00
20909;BME280;10614;53.198;6.570;2022-09-17T08:18:30;101171.69;;;11.09;100.00
20909;BME280;10614;53.198;6.570;2022-09-17T08:20:34;101170.06;;;11.05;100.00
20909;BME280;10614;53.198;6.570;2022-09-17T08:22:35;101156.06;;;11.04;100.00
20909;BME280;10614;53.198;6.570;2022-09-17T08:24:37;101178.94;;;11.02;100.00
20909;BME280;10614;53.198;6.570;2022-09-17T08:26:39;101159.78;;;10.98;100.00
20909;BME280;10614;53.198;6.570;2022-09-17T08:28:43;101163.28;;;10.99;100.00
20909;BME280;10614;53.198;6.570;2022-09-17T08:30:47;101160.69;;;10.97;100.00
20909;BME280;10614;53.198;6.570;2022-09-17T08:32:49;101164.06;;;11.01;100.00
20909;BME280;10614;53.198;6.570;2022-09-17T08:34:53;101165.63;;;11.07;100.00
20909;BME280;10614;53.198;6.570;2022-09-17T08:36:59;101158.38;;;11.12;100.00
20909;BME280;10614;53.198;6.570;2022-09-17T08:39:01;101160.84;;;11.16;100.00
20909;BME280;10614;53.198;6.570;2022-09-17T08:41:10;101156.97;;;11.27;100.00
20909;BME280;10614;53.198;6.570;2022-09-17T08:43:17;101156.63;;;11.36;100.00
20909;BME280;10614;53.198;6.570;2022-09-17T08:45:20;101165.09;;;11.44;100.00
20909;BME280;10614;53.198;6.570;2022-09-17T08:47:24;101164.78;;;11.52;100.00
20909;BME280;10614;53.198;6.570;2022-09-17T08:49:31;101163.53;;;11.62;100.00
20909;BME280;10614;53.198;6.570;2022-09-17T08:51:41;101169.47;;;11.67;100.00
20909;BME280;10614;53.198;6.570;2022-09-17T08:53:55;101200.88;;;11.73;100.00
20909;BME280;10614;53.198;6.570;2022-09-17T08:56:05;101207.06;;;11.72;95.87
20909;BME280;10614;53.198;6.570;2022-09-17T08:58:25;101188.41;;;11.55;92.40
20909;BME280;10614;53.198;6.570;2022-09-17T09:00:30;101192.22;;;11.48;91.42
20909;BME280;10614;53.198;6.570;2022-09-17T09:02:49;101188.34;;;11.33;92.24
20909;BME280;10614;53.198;6.570;2022-09-17T09:05:02;101184.47;;;11.19;92.76
20909;BME280;10614;53.198;6.570;2022-09-17T09:07:08;101179.44;;;11.13;94.37
20909;BME280;10614;53.198;6.570;2022-09-17T09:09:14;101193.44;;;11.14;94.35
20909;BME280;10614;53.198;6.570;2022-09-17T09:11:21;101175.81;;;11.16;95.50
20909;BME280;10614;53.198;6.570;2022-09-17T09:13:31;101183.59;;;11.19;96.96
20909;BME280;10614;53.198;6.570;2022-09-17T09:15:38;101172.16;;;11.20;98.66
20909;BME280;10614;53.198;6.570;2022-09-17T09:17:43;101183.69;;;11.17;97.85
20909;BME280;10614;53.198;6.570;2022-09-17T09:19:46;101174.84;;;11.18;98.53
20909;BME280;10614;53.198;6.570;2022-09-17T09:22:03;101171.41;;;11.16;98.68
20909;BME280;10614;53.198;6.570;2022-09-17T09:24:15;101175.91;;;11.14;98.88
20909;BME280;10614;53.198;6.570;2022-09-17T09:26:22;101173.19;;;11.16;98.29
20909;BME280;10614;53.198;6.570;2022-09-17T09:28:46;101181.84;;;11.19;99.49
20909;BME280;10614;53.198;6.570;2022-09-17T09:30:58;101209.72;;;11.25;99.12
20909;BME280;10614;53.198;6.570;2022-09-17T09:33:11;101230.66;;;11.30;100.00
20909;BME280;10614;53.198;6.570;2022-09-17T09:35:17;101205.47;;;11.21;100.00
20909;BME280;10614;53.198;6.570;2022-09-17T09:37:23;101220.94;;;11.07;100.00
20909;BME280;10614;53.198;6.570;2022-09-17T09:39:31;101204.78;;;10.92;100.00
20909;BME280;10614;53.198;6.570;2022-09-17T09:41:43;101203.47;;;10.79;100.00
20909;BME280;10614;53.198;6.570;2022-09-17T09:43:47;101193.06;;;10.76;100.00
20909;BME280;10614;53.198;6.570;2022-09-17T09:46:12;101195.66;;;10.77;100.00
20909;BME280;10614;53.198;6.570;2022-09-17T09:48:22;101191.19;;;10.80;100.00
20909;BME280;10614;53.198;6.570;2022-09-17T09:50:34;101190.16;;;10.84;100.00
20909;BME280;10614;53.198;6.570;2022-09-17T09:52:48;101183.88;;;10.88;100.00
20909;BME280;10614;53.198;6.570;2022-09-17T09:55:02;101176.59;;;10.94;100.00
20909;BME280;10614;53.198;6.570;2022-09-17T09:57:12;101163.31;;;10.97;100.00
20909;BME280;10614;53.198;6.570;2022-09-17T09:59:15;101173.59;;;11.05;100.00
20909;BME280;10614;53.198;6.570;2022-09-17T10:01:19;101181.25;;;11.11;100.00
20909;BME280;10614;53.198;6.570;2022-09-17T10:03:23;101173.13;;;11.17;100.00
20909;BME280;10614;53.198;6.570;2022-09-17T10:05:24;101179.84;;;11.26;100.00
20909;BME280;10614;53.198;6.570;2022-09-17T10:07:27;101176.06;;;11.33;100.00
20909;BME280;10614;53.198;6.570;2022-09-17T10:09:29;101174.81;;;11.42;100.00
20909;BME280;10614;53.198;6.570;2022-09-17T10:11:35;101171.97;;;11.48;100.00
20909;BME280;10614;53.198;6.570;2022-09-17T10:13:37;101169.88;;;11.56;100.00
20909;BME280;10614;53.198;6.570;2022-09-17T10:15:39;101173.13;;;11.63;100.00
20909;BME280;10614;53.198;6.570;2022-09-17T10:17:41;101171.13;;;11.70;100.00
20909;BME280;10614;53.198;6.570;2022-09-17T10:19:43;101214.78;;;11.77;100.00
20909;BME280;10614;53.198;6.570;2022-09-17T10:21:45;101201.63;;;11.77;100.00
20909;BME280;10614;53.198;6.570;2022-09-17T10:23:48;101175.38;;;11.74;100.00
20909;BME280;10614;53.198;6.570;2022-09-17T10:25:50;101178.31;;;11.66;100.00
20909;BME280;10614;53.198;6.570;2022-09-17T10:27:58;101204.09;;;11.58;98.68
20909;BME280;10614;53.198;6.570;2022-09-17T10:30:14;101177.06;;;11.53;99.16
20909;BME280;10614;53.198;6.570;2022-09-17T10:32:17;101171.28;;;11.43;96.51
20909;BME280;10614;53.198;6.570;2022-09-17T10:34:20;101171.38;;;11.40;96.45
20909;BME280;10614;53.198;6.570;2022-09-17T10:36:38;101169.72;;;11.37;96.55
20909;BME280;10614;53.198;6.570;2022-09-17T10:38:42;101176.66;;;11.40;97.45
20909;BME280;10614;53.198;6.570;2022-09-17T10:40:45;101184.34;;;11.46;98.14
20909;BME280;10614;53.198;6.570;2022-09-17T10:42:47;101163.31;;;11.45;97.14
20909;BME280;10614;53.198;6.570;2022-09-17T10:44:55;101181.94;;;11.64;97.32
20909;BME280;10614;53.198;6.570;2022-09-17T10:47:03;101174.56;;;11.72;98.04
20909;BME280;10614;53.198;6.570;2022-09-17T10:49:09;101159.22;;;11.81;98.36
20909;BME280;10614;53.198;6.570;2022-09-17T10:51:20;101172.84;;;11.94;99.24